createdAt,value
2022-12-29T00:01:46.335Z,2.75
2022-12-29T00:04:15.154Z,2.75
2022-12-29T00:06:43.318Z,2.90
2022-12-29T00:09:12.890Z,2.28
2022-12-29T00:11:39.613Z,2.42
2022-12-29T00:14:26.289Z,2.72
2022-12-29T00:16:53.181Z,2.47
2022-12-29T00:19:38.611Z,2.50
2022-12-29T00:22:24.301Z,2.70
2022-12-29T00:24:54.474Z,2.70
2022-12-29T00:27:39.492Z,3.13
2022-12-29T00:30:29.411Z,2.45
2022-12-29T00:33:14.401Z,2.65
2022-12-29T00:35:46.840Z,2.40
2022-12-29T00:38:32.897Z,2.17
2022-12-29T00:41:18.301Z,2.30
2022-12-29T00:44:03.169Z,2.53
2022-12-29T00:46:29.750Z,1.83
2022-12-29T00:49:14.954Z,2.42
2022-12-29T00:51:41.294Z,2.03
2022-12-29T00:54:07.878Z,2.10
2022-12-29T00:56:34.607Z,1.90
2022-12-29T00:59:11.479Z,1.70
2022-12-29T01:01:39.015Z,1.73
2022-12-29T01:04:06.549Z,1.38
2022-12-29T01:06:34.122Z,1.70
2022-12-29T01:09:19.813Z,1.60
2022-12-29T01:11:46.364Z,1.25
2022-12-29T01:14:12.830Z,1.30
2022-12-29T01:16:39.245Z,1.13
2022-12-29T01:19:05.743Z,1.15
2022-12-29T01:21:33.100Z,1.00
2022-12-29T01:24:00.192Z,0.95
2022-12-29T01:26:26.667Z,1.00
2022-12-29T01:28:53.131Z,1.10
2022-12-29T01:31:20.172Z,1.05
2022-12-29T01:33:46.523Z,0.90
2022-12-29T01:36:15.028Z,0.88
2022-12-29T01:38:42.426Z,1.20
2022-12-29T01:41:11.008Z,0.98
2022-12-29T01:46:34.178Z,1.40
2022-12-29T01:49:11.278Z,1.50
2022-12-29T01:51:46.604Z,1.33
2022-12-29T01:54:19.016Z,1.20
2022-12-29T01:56:46.716Z,1.40
2022-12-29T01:59:18.363Z,1.30
2022-12-29T02:01:45.678Z,1.60
2022-12-29T02:04:13.593Z,1.52
2022-12-29T02:06:52.829Z,1.40
2022-12-29T02:09:20.262Z,1.80
2022-12-29T02:11:47.604Z,1.40
2022-12-29T02:14:15.036Z,1.40
2022-12-29T02:17:12.363Z,1.50
2022-12-29T02:20:06.573Z,1.50
2022-12-29T02:22:59.831Z,1.30
2022-12-29T02:25:54.352Z,1.33
2022-12-29T02:28:45.658Z,1.15
2022-12-29T02:31:21.037Z,1.38
2022-12-29T02:34:26.830Z,1.30
2022-12-29T02:37:20.745Z,0.95
2022-12-29T02:39:57.902Z,1.00
2022-12-29T02:42:42.121Z,0.88
2022-12-29T02:45:23.101Z,0.80
2022-12-29T02:47:58.363Z,0.90
2022-12-29T02:50:38.347Z,0.70
2022-12-29T02:53:12.184Z,0.70
2022-12-29T02:55:38.588Z,0.85
2022-12-29T02:58:23.838Z,0.70
2022-12-29T03:01:08.558Z,0.90
2022-12-29T03:03:40.653Z,1.20
2022-12-29T03:06:29.027Z,0.70
2022-12-29T03:09:18.800Z,0.95
2022-12-29T03:12:14.963Z,1.08
2022-12-29T03:15:15.738Z,0.75
2022-12-29T03:18:14.702Z,0.73
2022-12-29T03:21:04.539Z,1.02
2022-12-29T03:23:32.386Z,1.17
2022-12-29T03:26:05.037Z,0.70
2022-12-29T03:28:41.972Z,0.80
2022-12-29T03:31:10.172Z,0.73
2022-12-29T03:33:39.803Z,0.93
2022-12-29T03:36:10.859Z,0.50
2022-12-29T03:38:41.378Z,0.60
2022-12-29T03:41:12.346Z,0.63
2022-12-29T03:43:38.884Z,0.70
2022-12-29T03:46:05.370Z,0.70
2022-12-29T03:48:33.911Z,1.20
2022-12-29T03:51:00.969Z,0.55
2022-12-29T03:53:27.400Z,0.77
2022-12-29T03:55:53.859Z,0.60
2022-12-29T03:58:20.292Z,0.50
2022-12-29T04:00:46.833Z,0.80
2022-12-29T04:03:13.452Z,0.80
2022-12-29T04:05:39.836Z,0.75
2022-12-29T04:08:06.536Z,0.85
2022-12-29T04:10:33.071Z,0.60
2022-12-29T04:13:00.549Z,0.70
2022-12-29T04:15:27.380Z,0.80
2022-12-29T04:17:53.893Z,0.60
2022-12-29T04:20:39.027Z,0.93
2022-12-29T04:23:07.178Z,0.77
2022-12-29T04:25:34.438Z,0.75
2022-12-29T04:28:01.742Z,0.70
2022-12-29T04:30:28.376Z,0.93
2022-12-29T04:32:55.442Z,1.08
2022-12-29T04:35:21.879Z,1.00
2022-12-29T04:37:48.332Z,1.10
2022-12-29T04:40:14.847Z,0.80
2022-12-29T04:42:41.245Z,1.00
2022-12-29T04:45:08.614Z,0.80
2022-12-29T04:47:34.989Z,0.80
2022-12-29T04:50:01.368Z,0.70
2022-12-29T04:52:27.804Z,1.05
2022-12-29T04:54:54.217Z,0.65
2022-12-29T04:57:20.648Z,1.02
2022-12-29T04:59:47.052Z,0.80
2022-12-29T05:02:13.549Z,0.85
2022-12-29T05:04:40.989Z,1.00
2022-12-29T05:07:07.447Z,0.90
2022-12-29T05:09:33.823Z,1.02
2022-12-29T05:12:00.544Z,0.75
2022-12-29T05:14:27.430Z,1.30
2022-12-29T05:16:53.851Z,0.80
2022-12-29T05:19:20.305Z,0.85
2022-12-29T05:21:46.737Z,0.82
2022-12-29T05:24:13.090Z,1.10
2022-12-29T05:26:39.501Z,0.90
2022-12-29T05:29:05.973Z,1.00
2022-12-29T05:31:32.369Z,1.23
2022-12-29T05:33:58.764Z,1.20
2022-12-29T05:36:25.120Z,1.27
2022-12-29T05:38:51.547Z,0.80
2022-12-29T05:41:18.644Z,0.95
2022-12-29T05:43:45.155Z,0.80
2022-12-29T05:46:11.987Z,1.20
2022-12-29T05:48:38.535Z,0.98
2022-12-29T05:51:05.362Z,0.80
2022-12-29T05:53:31.771Z,0.75
2022-12-29T05:55:58.190Z,1.02
2022-12-29T05:58:24.706Z,1.30
2022-12-29T06:00:51.939Z,1.20
2022-12-29T06:03:18.560Z,1.25
2022-12-29T06:05:48.398Z,1.20
2022-12-29T06:08:14.799Z,1.42
2022-12-29T06:10:41.203Z,1.20
2022-12-29T06:13:07.625Z,1.15
2022-12-29T06:15:34.445Z,1.10
2022-12-29T06:18:01.114Z,1.83
2022-12-29T06:20:27.798Z,1.10
2022-12-29T06:22:54.225Z,1.30
2022-12-29T06:25:20.688Z,1.10
2022-12-29T06:27:47.114Z,1.20
2022-12-29T06:30:14.006Z,1.70
2022-12-29T06:32:40.639Z,1.58
2022-12-29T06:35:07.496Z,1.33
2022-12-29T06:37:33.904Z,1.20
2022-12-29T06:40:00.329Z,1.17
2022-12-29T06:42:26.820Z,1.00
2022-12-29T06:44:53.405Z,1.00
2022-12-29T06:47:19.938Z,1.00
2022-12-29T06:49:46.621Z,0.98
2022-12-29T06:52:14.019Z,1.10
2022-12-29T06:54:40.756Z,1.05
2022-12-29T06:57:07.382Z,0.90
2022-12-29T06:59:33.707Z,2.15
2022-12-29T07:02:00.487Z,1.50
2022-12-29T07:04:27.178Z,0.90
2022-12-29T07:06:53.628Z,1.00
2022-12-29T07:09:20.096Z,0.95
2022-12-29T07:11:46.604Z,0.93
2022-12-29T07:14:12.991Z,0.93
2022-12-29T07:16:39.561Z,1.10
2022-12-29T07:19:06.721Z,1.02
2022-12-29T07:21:33.593Z,1.10
2022-12-29T07:24:00.245Z,0.85
2022-12-29T07:26:30.300Z,1.25
2022-12-29T07:29:01.443Z,0.80
2022-12-29T07:31:27.901Z,1.13
2022-12-29T07:33:55.161Z,1.17
2022-12-29T07:36:21.819Z,1.00
2022-12-29T07:38:48.317Z,0.85
2022-12-29T07:41:14.768Z,1.13
2022-12-29T07:43:41.166Z,1.20
2022-12-29T07:46:18.917Z,1.10
2022-12-29T07:48:57.413Z,1.02
2022-12-29T07:51:23.838Z,1.00
2022-12-29T07:53:50.550Z,1.13
2022-12-29T07:56:16.919Z,0.95
2022-12-29T07:58:43.622Z,1.00
2022-12-29T08:01:10.172Z,1.45
2022-12-29T08:03:37.500Z,1.48
2022-12-29T08:06:04.298Z,1.38
2022-12-29T08:08:30.675Z,1.88
2022-12-29T08:10:57.037Z,1.33
2022-12-29T08:13:23.515Z,1.83
2022-12-29T08:15:50.596Z,1.40
2022-12-29T08:18:16.959Z,1.38
2022-12-29T08:20:43.345Z,1.23
2022-12-29T08:23:09.714Z,2.17
2022-12-29T08:25:36.147Z,1.33
2022-12-29T08:28:02.726Z,1.60
2022-12-29T08:30:29.136Z,1.02
2022-12-29T08:32:55.593Z,1.30
2022-12-29T08:35:22.356Z,1.23
2022-12-29T08:37:48.753Z,1.48
2022-12-29T08:40:15.172Z,1.13
2022-12-29T08:42:41.569Z,1.30
2022-12-29T08:45:09.552Z,1.10
2022-12-29T08:47:35.955Z,1.67
2022-12-29T08:50:02.477Z,1.75
2022-12-29T08:52:28.852Z,1.58
2022-12-29T08:54:55.231Z,1.08
2022-12-29T08:57:21.664Z,1.55
2022-12-29T08:59:48.033Z,1.38
2022-12-29T09:02:18.757Z,1.42
2022-12-29T09:04:48.865Z,1.42
2022-12-29T09:07:15.248Z,1.60
2022-12-29T09:09:41.678Z,1.40
2022-12-29T09:12:08.193Z,1.83
2022-12-29T09:14:34.815Z,1.30
2022-12-29T09:17:19.825Z,1.55
2022-12-29T09:19:46.322Z,1.73
2022-12-29T09:22:12.904Z,1.33
2022-12-29T09:24:39.385Z,1.23
2022-12-29T09:27:05.804Z,1.23
2022-12-29T09:29:32.249Z,1.88
2022-12-29T09:31:58.685Z,1.83
2022-12-29T09:34:25.098Z,1.75
2022-12-29T09:36:51.581Z,1.52
2022-12-29T09:39:18.271Z,1.48
2022-12-29T09:41:53.126Z,1.38
2022-12-29T09:44:39.751Z,1.50
2022-12-29T09:47:12.292Z,1.60
2022-12-29T09:49:47.193Z,1.65
2022-12-29T09:52:30.655Z,1.30
2022-12-29T09:55:11.979Z,1.83
2022-12-29T09:57:49.456Z,1.95
2022-12-29T10:00:19.432Z,0.90
2022-12-29T10:02:55.985Z,1.45
2022-12-29T10:05:39.493Z,1.35
2022-12-29T10:08:17.787Z,1.25
2022-12-29T10:10:58.284Z,1.40
2022-12-29T10:13:27.388Z,1.42
2022-12-29T10:15:57.612Z,1.50
2022-12-29T10:18:52.265Z,1.65
2022-12-29T10:21:36.899Z,1.15
2022-12-29T10:24:08.611Z,1.58
2022-12-29T10:26:40.545Z,1.85
2022-12-29T10:29:15.696Z,1.63
2022-12-29T10:31:59.902Z,1.10
2022-12-29T10:34:34.524Z,1.50
2022-12-29T10:37:13.165Z,1.30
2022-12-29T10:42:20.857Z,1.45
2022-12-29T10:44:47.658Z,1.40
2022-12-29T10:47:19.357Z,1.42
2022-12-29T10:49:48.585Z,1.30
2022-12-29T10:52:18.273Z,1.48
2022-12-29T10:54:54.575Z,1.00
2022-12-29T10:57:33.769Z,1.45
2022-12-29T11:00:00.354Z,1.23
2022-12-29T11:02:48.474Z,1.83
2022-12-29T11:05:47.168Z,1.48
2022-12-29T11:08:19.905Z,1.50
2022-12-29T11:10:47.224Z,1.65
2022-12-29T11:13:19.950Z,1.63
2022-12-29T11:15:51.227Z,1.85
2022-12-29T11:18:21.976Z,1.83
2022-12-29T11:20:49.698Z,1.80
2022-12-29T11:23:42.782Z,1.87
2022-12-29T11:26:17.165Z,1.98
2022-12-29T11:29:07.879Z,1.98
2022-12-29T11:31:48.298Z,2.10
2022-12-29T11:34:23.270Z,1.90
2022-12-29T11:36:54.121Z,2.20
2022-12-29T11:39:48.066Z,2.45
2022-12-29T11:42:21.141Z,2.78
2022-12-29T11:44:49.861Z,1.90
2022-12-29T11:50:07.683Z,2.55
2022-12-29T11:52:40.296Z,2.50
2022-12-29T11:55:17.616Z,2.53
2022-12-29T11:57:45.721Z,2.33
2022-12-29T12:00:25.962Z,1.98
2022-12-29T12:03:18.580Z,2.33
2022-12-29T12:05:55.333Z,3.00
2022-12-29T12:08:42.806Z,3.08
2022-12-29T12:11:16.453Z,2.70
2022-12-29T12:14:05.909Z,2.83
2022-12-29T12:16:41.103Z,2.40
2022-12-29T12:19:17.543Z,2.90
2022-12-29T12:21:50.796Z,2.70
2022-12-29T12:24:43.466Z,2.80
2022-12-29T12:27:20.466Z,2.28
2022-12-29T12:29:56.108Z,2.35
2022-12-29T12:32:46.434Z,2.28
2022-12-29T12:35:30.664Z,3.00
2022-12-29T12:38:14.706Z,2.58
2022-12-29T12:40:58.016Z,3.00
2022-12-29T12:43:57.319Z,2.60
2022-12-29T12:46:41.982Z,2.03
2022-12-29T12:49:42.323Z,2.17
2022-12-29T12:52:15.345Z,2.67
2022-12-29T12:55:19.744Z,2.20
2022-12-29T12:58:12.680Z,3.28
2022-12-29T13:00:53.825Z,2.22
2022-12-29T13:03:47.742Z,2.33
2022-12-29T13:06:32.329Z,2.47
2022-12-29T13:09:32.511Z,2.67
2022-12-29T13:12:25.833Z,2.67
2022-12-29T13:15:06.150Z,2.83
2022-12-29T13:18:14.353Z,2.58
2022-12-29T13:20:48.526Z,2.90
2022-12-29T13:23:24.054Z,2.30
2022-12-29T13:26:02.480Z,2.58
2022-12-29T13:28:56.565Z,3.30
2022-12-29T13:31:46.859Z,2.33
2022-12-29T13:34:24.743Z,2.25
2022-12-29T13:37:02.529Z,2.63
2022-12-29T13:39:36.336Z,2.45
2022-12-29T13:42:05.310Z,2.35
2022-12-29T13:44:39.864Z,2.60
2022-12-29T13:47:20.103Z,2.10
2022-12-29T13:49:47.845Z,2.38
2022-12-29T13:52:25.885Z,2.60
2022-12-29T13:55:16.566Z,1.73
2022-12-29T13:57:55.544Z,2.05
2022-12-29T14:00:24.853Z,2.10
2022-12-29T14:03:29.996Z,2.63
2022-12-29T14:06:16.488Z,2.30
2022-12-29T14:08:44.929Z,2.55
2022-12-29T14:11:15.929Z,2.63
2022-12-29T14:13:45.563Z,1.90
2022-12-29T14:16:27.826Z,2.17
2022-12-29T14:18:58.282Z,2.42
2022-12-29T14:21:30.614Z,2.20
2022-12-29T14:24:38.700Z,1.65
2022-12-29T14:27:11.140Z,1.40
2022-12-29T14:29:41.043Z,1.67
2022-12-29T14:32:26.145Z,1.52
2022-12-29T14:34:53.018Z,1.27
2022-12-29T14:37:31.293Z,1.00
2022-12-29T14:40:19.155Z,1.35
2022-12-29T14:42:49.670Z,1.35
2022-12-29T14:45:16.014Z,1.50
2022-12-29T14:47:45.327Z,1.52
2022-12-29T14:50:11.738Z,1.40
2022-12-29T14:53:02.881Z,1.48
2022-12-29T14:55:51.221Z,1.60
2022-12-29T14:58:39.213Z,1.95
2022-12-29T15:01:18.955Z,2.40
2022-12-29T15:03:51.158Z,1.70
2022-12-29T15:06:23.304Z,1.70
2022-12-29T15:09:17.877Z,1.67
2022-12-29T15:11:56.381Z,1.67
2022-12-29T15:14:48.859Z,1.65
2022-12-29T15:17:28.606Z,1.90
2022-12-29T15:19:57.257Z,3.10
2022-12-29T15:24:55.949Z,1.92
2022-12-29T15:27:25.211Z,2.30
2022-12-29T15:30:03.576Z,1.77
2022-12-29T15:32:41.992Z,2.42
2022-12-29T15:35:38.270Z,2.65
2022-12-29T15:38:17.911Z,2.10
2022-12-29T15:40:45.901Z,2.53
2022-12-29T15:43:54.287Z,2.15
2022-12-29T15:46:21.155Z,1.70
2022-12-29T15:48:47.778Z,2.00
2022-12-29T15:51:21.519Z,3.42
2022-12-29T15:53:51.255Z,1.85
2022-12-29T15:56:18.642Z,1.60
2022-12-29T15:58:49.808Z,1.70
2022-12-29T16:01:29.873Z,1.40
2022-12-29T16:03:59.235Z,1.25
2022-12-29T16:06:27.794Z,1.50
2022-12-29T16:09:07.860Z,1.70
2022-12-29T16:11:46.662Z,4.43
2022-12-29T16:14:22.522Z,1.95
2022-12-29T16:16:52.532Z,1.85
2022-12-29T16:19:28.899Z,3.05
2022-12-29T16:21:55.881Z,2.55
2022-12-29T16:24:26.420Z,2.00
2022-12-29T16:27:03.081Z,1.90
2022-12-29T16:29:34.206Z,2.45
2022-12-29T16:32:06.095Z,1.75
2022-12-29T16:34:43.110Z,1.75
2022-12-29T16:37:31.732Z,2.15
2022-12-29T16:40:33.046Z,1.80
2022-12-29T16:43:04.208Z,2.05
2022-12-29T16:45:49.484Z,1.70
2022-12-29T16:48:54.848Z,1.65
2022-12-29T16:51:32.668Z,1.30
2022-12-29T16:54:00.789Z,1.60
2022-12-29T16:56:37.172Z,1.35
2022-12-29T16:59:20.214Z,1.63
2022-12-29T17:01:46.913Z,1.50
2022-12-29T17:04:15.042Z,1.10
2022-12-29T17:06:42.049Z,1.30
2022-12-29T17:09:24.713Z,1.23
2022-12-29T17:12:06.960Z,1.27
2022-12-29T17:14:52.734Z,1.20
2022-12-29T17:17:27.777Z,1.27
2022-12-29T17:19:59.747Z,2.42
2022-12-29T17:22:28.259Z,1.60
2022-12-29T17:24:57.622Z,1.92
2022-12-29T17:27:50.788Z,1.33
2022-12-29T17:30:21.039Z,1.52
2022-12-29T17:32:56.315Z,1.27
2022-12-29T17:35:23.028Z,1.30
2022-12-29T17:37:50.070Z,1.30
2022-12-29T17:40:28.498Z,1.20
2022-12-29T17:42:57.638Z,0.95
2022-12-29T17:45:28.371Z,1.35
2022-12-29T17:47:56.148Z,1.08
2022-12-29T17:50:27.470Z,1.10
2022-12-29T17:53:03.147Z,1.75
2022-12-29T17:55:37.131Z,1.00
2022-12-29T17:58:24.422Z,1.08
2022-12-29T18:00:54.226Z,1.52
2022-12-29T18:03:27.580Z,2.00
2022-12-29T18:05:54.320Z,1.75
2022-12-29T18:08:21.535Z,1.98
2022-12-29T18:10:48.512Z,2.03
2022-12-29T18:13:39.295Z,1.90
2022-12-29T18:16:12.300Z,1.38
2022-12-29T18:18:38.695Z,2.25
2022-12-29T18:21:05.294Z,1.77
2022-12-29T18:23:35.218Z,1.35
2022-12-29T18:26:04.765Z,1.70
2022-12-29T18:28:31.549Z,1.75
2022-12-29T18:31:00.269Z,1.67
2022-12-29T18:35:59.327Z,2.35
2022-12-29T18:38:26.443Z,1.48
2022-12-29T18:40:53.723Z,1.60
2022-12-29T18:43:20.739Z,1.80
2022-12-29T18:45:47.368Z,1.70
2022-12-29T18:48:18.682Z,1.35
2022-12-29T18:50:46.412Z,1.73
2022-12-29T18:53:17.244Z,2.58
2022-12-29T18:55:43.630Z,1.67
2022-12-29T18:58:10.010Z,1.52
2022-12-29T19:00:36.622Z,1.83
2022-12-29T19:03:03.102Z,1.80
2022-12-29T19:05:35.015Z,1.40
2022-12-29T19:08:02.189Z,1.90
2022-12-29T19:10:29.123Z,1.70
2022-12-29T19:12:55.703Z,1.88
2022-12-29T19:15:24.264Z,1.58
2022-12-29T19:18:08.557Z,1.65
2022-12-29T19:20:40.576Z,2.65
2022-12-29T19:23:09.642Z,2.45
2022-12-29T19:25:36.180Z,2.35
2022-12-29T19:28:03.313Z,3.00
2022-12-29T19:30:29.757Z,2.25
2022-12-29T19:33:03.133Z,2.20
2022-12-29T19:35:31.713Z,3.08
2022-12-29T19:37:58.143Z,2.95
2022-12-29T19:40:26.196Z,1.80
2022-12-29T19:42:52.912Z,2.28
2022-12-29T19:45:20.486Z,2.53
2022-12-29T19:47:46.882Z,1.73
2022-12-29T19:50:15.530Z,2.35
2022-12-29T19:52:43.062Z,2.33
2022-12-29T19:55:11.892Z,2.33
2022-12-29T19:57:38.382Z,1.98
2022-12-29T20:00:05.799Z,2.40
2022-12-29T20:02:33.960Z,2.13
2022-12-29T20:05:00.843Z,2.83
2022-12-29T20:07:27.845Z,2.22
2022-12-29T20:09:54.269Z,2.58
2022-12-29T20:12:25.720Z,2.97
2022-12-29T20:14:56.489Z,2.53
2022-12-29T20:18:01.946Z,3.13
2022-12-29T20:20:10.116Z,3.10
2022-12-29T20:22:36.830Z,2.67
2022-12-29T20:25:53.647Z,2.95
2022-12-29T20:27:51.006Z,2.53
2022-12-29T20:30:18.622Z,3.60
2022-12-29T20:32:45.140Z,2.85
2022-12-29T20:35:12.997Z,3.08
2022-12-29T20:37:39.378Z,3.00
2022-12-29T20:40:06.099Z,2.63
2022-12-29T20:42:32.531Z,2.67
2022-12-29T20:44:58.939Z,2.25
2022-12-29T20:47:25.436Z,2.60
2022-12-29T20:49:51.938Z,3.00
2022-12-29T20:52:20.325Z,2.88
2022-12-29T20:54:46.706Z,2.42
2022-12-29T20:57:13.111Z,3.22
2022-12-29T20:59:39.520Z,2.28
2022-12-29T21:02:06.629Z,2.85
2022-12-29T21:04:57.451Z,3.38
2022-12-29T21:07:20.466Z,2.67
2022-12-29T21:09:47.055Z,2.47
2022-12-29T21:12:13.577Z,3.00
2022-12-29T21:14:45.374Z,2.50
2022-12-29T21:17:12.479Z,3.33
2022-12-29T21:19:38.850Z,2.63
2022-12-29T21:22:05.329Z,2.42
2022-12-29T21:24:31.790Z,3.00
2022-12-29T21:26:58.220Z,2.10
2022-12-29T21:29:24.779Z,2.72
2022-12-29T21:31:51.293Z,2.90
2022-12-29T21:34:17.661Z,1.65
2022-12-29T21:36:44.107Z,3.20
2022-12-29T21:39:12.121Z,3.20
2022-12-29T21:41:38.499Z,3.35
2022-12-29T21:44:25.078Z,2.20
2022-12-29T21:46:51.463Z,3.17
2022-12-29T21:49:18.051Z,2.20
2022-12-29T21:51:50.437Z,2.97
2022-12-29T21:54:37.297Z,2.55
2022-12-29T21:57:05.038Z,2.53
2022-12-29T21:59:50.145Z,2.15
2022-12-29T22:02:44.165Z,2.10
2022-12-29T22:05:31.536Z,2.20
2022-12-29T22:08:17.032Z,2.63
2022-12-29T22:11:04.237Z,2.30
2022-12-29T22:13:32.651Z,2.85
2022-12-29T22:15:59.831Z,3.05
2022-12-29T22:18:26.243Z,3.05
2022-12-29T22:20:52.810Z,2.08
2022-12-29T22:23:19.321Z,2.53
2022-12-29T22:25:46.490Z,2.10
2022-12-29T22:28:12.911Z,2.40
2022-12-29T22:30:39.351Z,2.30
2022-12-29T22:33:05.792Z,2.20
2022-12-29T22:35:32.205Z,2.30
2022-12-29T22:37:58.614Z,2.47
2022-12-29T22:40:25.624Z,1.92
2022-12-29T22:42:52.241Z,2.30
2022-12-29T22:45:18.669Z,1.80
2022-12-29T22:47:45.087Z,2.47
2022-12-29T22:50:11.560Z,2.40
2022-12-29T22:52:38.028Z,2.33
2022-12-29T22:55:07.254Z,1.90
2022-12-29T22:57:34.594Z,2.38
2022-12-29T23:00:01.035Z,2.55
2022-12-29T23:02:27.729Z,2.28
2022-12-29T23:05:03.845Z,2.60
2022-12-29T23:07:31.637Z,2.15
2022-12-29T23:09:58.186Z,3.25
2022-12-29T23:12:24.795Z,2.30
2022-12-29T23:14:51.187Z,2.75
2022-12-29T23:17:17.642Z,1.77
2022-12-29T23:19:44.014Z,2.28
2022-12-29T23:22:10.462Z,1.98
2022-12-29T23:24:37.003Z,2.20
2022-12-29T23:27:03.483Z,2.05
2022-12-29T23:29:30.024Z,1.77
2022-12-29T23:31:56.402Z,2.30
2022-12-29T23:34:22.776Z,2.08
2022-12-29T23:36:50.896Z,2.40
2022-12-29T23:39:23.457Z,2.50
2022-12-29T23:41:50.688Z,2.10
2022-12-29T23:44:17.100Z,2.80
2022-12-29T23:46:43.652Z,2.60
2022-12-29T23:49:10.094Z,2.63
2022-12-29T23:51:37.032Z,1.80
2022-12-29T23:54:03.934Z,3.28
2022-12-29T23:56:30.314Z,2.20
2022-12-29T23:58:56.735Z,2.30
